createdAt,value
2019-03-27T00:01:50.765Z,70.60
2019-03-27T00:04:21.633Z,71.90
2019-03-27T00:06:52.362Z,70.80
2019-03-27T00:09:23.173Z,70.40
2019-03-27T00:11:54.018Z,72.30
2019-03-27T00:14:24.749Z,71.30
2019-03-27T00:16:55.826Z,70.10
2019-03-27T00:19:26.564Z,72.00
2019-03-27T00:21:57.453Z,71.20
2019-03-27T00:24:28.151Z,71.20
2019-03-27T00:26:59.226Z,72.50
2019-03-27T00:29:29.902Z,71.40
2019-03-27T00:32:00.765Z,71.20
2019-03-27T00:34:31.512Z,71.40
2019-03-27T00:37:02.439Z,71.40
2019-03-27T00:39:33.180Z,71.30
2019-03-27T00:42:04.011Z,72.40
2019-03-27T00:44:34.919Z,71.80
2019-03-27T00:47:05.772Z,71.70
2019-03-27T00:49:36.663Z,72.10
2019-03-27T00:52:07.361Z,71.60
2019-03-27T00:54:38.249Z,73.90
2019-03-27T00:57:08.977Z,72.00
2019-03-27T00:59:39.896Z,74.10
2019-03-27T01:02:10.619Z,72.30
2019-03-27T01:04:41.454Z,72.50
2019-03-27T01:07:12.237Z,73.20
2019-03-27T01:09:43.004Z,73.50
2019-03-27T01:12:13.787Z,74.30
2019-03-27T01:14:44.677Z,79.70
2019-03-27T01:17:15.543Z,74.90
2019-03-27T01:19:46.339Z,76.90
2019-03-27T01:22:17.086Z,77.80
2019-03-27T01:24:47.795Z,76.00
2019-03-27T01:27:18.612Z,74.60
2019-03-27T01:29:49.377Z,73.90
2019-03-27T01:32:20.210Z,74.10
2019-03-27T01:34:50.935Z,72.80
2019-03-27T01:37:21.766Z,75.60
2019-03-27T01:39:52.513Z,74.50
2019-03-27T01:42:23.374Z,74.30
2019-03-27T01:44:54.124Z,77.90
2019-03-27T01:47:27.871Z,75.50
2019-03-27T01:49:58.774Z,74.20
2019-03-27T01:52:29.484Z,74.30
2019-03-27T01:55:00.368Z,75.70
2019-03-27T01:57:31.196Z,74.60
2019-03-27T02:00:01.922Z,74.90
2019-03-27T02:02:32.716Z,74.70
2019-03-27T02:05:03.535Z,75.80
2019-03-27T02:07:34.261Z,75.50
2019-03-27T02:10:05.680Z,80.30
2019-03-27T02:12:36.382Z,74.70
2019-03-27T02:15:08.614Z,74.60
2019-03-27T02:17:39.387Z,74.80
2019-03-27T02:20:10.319Z,76.00
2019-03-27T02:22:41.103Z,76.60
2019-03-27T02:25:12.474Z,75.30
2019-03-27T02:27:43.359Z,81.90
2019-03-27T02:30:14.040Z,77.90
2019-03-27T02:32:44.921Z,78.30
2019-03-27T02:35:15.776Z,78.30
2019-03-27T02:37:46.558Z,79.20
2019-03-27T02:40:17.378Z,77.90
2019-03-27T02:42:48.219Z,76.50
2019-03-27T02:45:18.928Z,76.70
2019-03-27T02:47:49.703Z,78.40
2019-03-27T02:50:20.551Z,84.00
2019-03-27T02:52:51.265Z,80.10
2019-03-27T02:55:22.097Z,77.20
2019-03-27T02:57:52.804Z,77.20
2019-03-27T03:00:23.535Z,77.40
2019-03-27T03:02:54.242Z,77.30
2019-03-27T03:05:24.978Z,79.20
2019-03-27T03:07:55.710Z,76.70
2019-03-27T03:10:26.561Z,82.70
2019-03-27T03:12:57.271Z,76.70
2019-03-27T03:15:28.006Z,76.30
2019-03-27T03:17:58.742Z,75.30
2019-03-27T03:20:29.588Z,76.30
2019-03-27T03:23:00.385Z,76.20
2019-03-27T03:25:31.213Z,75.90
2019-03-27T03:28:02.122Z,75.90
2019-03-27T03:30:32.903Z,76.10
2019-03-27T03:33:03.938Z,76.40
2019-03-27T03:35:34.804Z,78.00
2019-03-27T03:38:05.666Z,77.70
2019-03-27T03:40:36.383Z,78.60
2019-03-27T03:43:07.208Z,79.40
2019-03-27T03:45:37.929Z,79.90
2019-03-27T03:48:08.783Z,78.20
2019-03-27T03:50:44.156Z,77.90
2019-03-27T03:53:15.931Z,78.70
2019-03-27T03:55:46.688Z,78.80
2019-03-27T03:58:17.982Z,78.60
2019-03-27T04:00:49.559Z,81.70
2019-03-27T04:03:22.080Z,79.60
2019-03-27T04:05:52.913Z,78.00
2019-03-27T04:08:23.756Z,78.70
2019-03-27T04:10:54.692Z,77.90
2019-03-27T04:13:25.414Z,77.80
2019-03-27T04:15:56.280Z,79.10
2019-03-27T04:18:26.956Z,78.00
2019-03-27T04:20:57.708Z,77.90
2019-03-27T04:23:28.564Z,77.20
2019-03-27T04:26:09.829Z,79.00
2019-03-27T04:28:31.643Z,77.70
2019-03-27T04:31:02.773Z,78.10
2019-03-27T04:33:33.647Z,77.30
2019-03-27T04:36:04.422Z,77.30
2019-03-27T04:38:35.273Z,78.00
2019-03-27T04:41:06.102Z,77.40
2019-03-27T04:43:36.959Z,78.80
2019-03-27T04:46:07.725Z,80.60
2019-03-27T04:48:38.618Z,77.50
2019-03-27T04:51:09.409Z,82.80
2019-03-27T04:53:40.109Z,79.30
2019-03-27T04:56:10.892Z,78.70
2019-03-27T04:58:41.607Z,77.90
2019-03-27T05:01:12.464Z,78.70
2019-03-27T05:03:43.181Z,77.90
2019-03-27T05:06:14.499Z,77.50
2019-03-27T05:08:45.201Z,79.70
2019-03-27T05:11:16.064Z,77.50
2019-03-27T05:13:46.766Z,78.50
2019-03-27T05:16:17.561Z,78.20
2019-03-27T05:18:48.255Z,77.10
2019-03-27T05:21:19.094Z,77.80
2019-03-27T05:23:49.881Z,77.70
2019-03-27T05:26:20.629Z,77.60
2019-03-27T05:28:51.377Z,77.80
2019-03-27T05:31:22.129Z,77.90
2019-03-27T05:33:52.950Z,77.90
2019-03-27T05:36:23.693Z,77.10
2019-03-27T05:38:54.615Z,77.50
2019-03-27T05:41:25.437Z,77.40
2019-03-27T05:43:56.266Z,78.60
2019-03-27T05:46:26.971Z,77.90
2019-03-27T05:48:57.940Z,77.30
2019-03-27T05:51:28.722Z,77.40
2019-03-27T05:53:59.551Z,77.10
2019-03-27T05:56:30.295Z,77.50
2019-03-27T05:59:01.003Z,77.90
2019-03-27T06:01:31.925Z,80.10
2019-03-27T06:04:02.811Z,77.90
2019-03-27T06:06:33.591Z,77.80
2019-03-27T06:09:05.306Z,77.50
2019-03-27T06:11:36.129Z,77.80
2019-03-27T06:14:06.863Z,78.40
2019-03-27T06:16:37.587Z,77.80
2019-03-27T06:19:08.369Z,79.00
2019-03-27T06:21:39.269Z,77.90
2019-03-27T06:24:09.993Z,78.50
2019-03-27T06:26:40.862Z,78.70
2019-03-27T06:29:11.535Z,78.20
2019-03-27T06:31:42.315Z,77.80
2019-03-27T06:34:12.963Z,80.60
2019-03-27T06:36:43.766Z,78.40
2019-03-27T06:39:14.605Z,77.80
2019-03-27T06:41:45.568Z,79.10
2019-03-27T06:44:16.342Z,80.00
2019-03-27T06:46:47.149Z,79.40
2019-03-27T06:49:17.978Z,78.60
2019-03-27T06:51:48.639Z,78.40
2019-03-27T06:54:19.558Z,78.30
2019-03-27T06:56:50.218Z,78.20
2019-03-27T06:59:21.027Z,78.30
2019-03-27T07:01:51.725Z,78.30
2019-03-27T07:04:22.573Z,78.20
2019-03-27T07:06:53.290Z,78.90
2019-03-27T07:09:24.051Z,78.40
2019-03-27T07:11:54.971Z,78.60
2019-03-27T07:14:25.727Z,78.60
2019-03-27T07:16:56.447Z,82.10
2019-03-27T07:19:27.195Z,80.00
2019-03-27T07:21:58.028Z,81.40
2019-03-27T07:24:28.857Z,78.70
2019-03-27T07:26:59.550Z,79.70
2019-03-27T07:29:30.299Z,78.80
2019-03-27T07:32:01.162Z,79.80
2019-03-27T07:34:31.917Z,80.40
2019-03-27T07:37:03.503Z,78.70
2019-03-27T07:39:34.347Z,79.40
2019-03-27T07:42:05.273Z,79.80
2019-03-27T07:44:36.006Z,80.40
2019-03-27T07:47:06.909Z,80.60
2019-03-27T07:49:37.678Z,80.70
2019-03-27T07:52:08.542Z,80.70
2019-03-27T07:54:39.349Z,80.50
2019-03-27T07:57:10.283Z,81.20
2019-03-27T07:59:41.014Z,80.40
2019-03-27T08:02:12.048Z,81.20
2019-03-27T08:04:42.819Z,81.10
2019-03-27T08:07:26.270Z,81.30
2019-03-27T08:09:46.175Z,82.20
2019-03-27T08:12:16.888Z,82.60
2019-03-27T08:14:47.776Z,82.70
2019-03-27T08:17:18.507Z,82.00
2019-03-27T08:19:49.369Z,83.50
2019-03-27T08:22:20.106Z,84.30
2019-03-27T08:24:50.925Z,81.30
2019-03-27T08:27:21.653Z,81.20
2019-03-27T08:29:52.455Z,80.80
2019-03-27T08:32:23.354Z,80.40
2019-03-27T08:34:54.139Z,80.40
2019-03-27T08:37:24.967Z,80.80
2019-03-27T08:39:55.728Z,80.50
2019-03-27T08:42:26.516Z,80.30
2019-03-27T08:44:57.449Z,80.60
2019-03-27T08:47:28.234Z,80.10
2019-03-27T08:49:58.986Z,78.80
2019-03-27T08:52:29.724Z,78.30
2019-03-27T08:55:00.566Z,78.10
2019-03-27T08:57:31.296Z,77.70
2019-03-27T09:00:02.834Z,77.90
2019-03-27T09:02:33.791Z,76.60
2019-03-27T09:05:04.811Z,76.90
2019-03-27T09:07:35.570Z,76.30
2019-03-27T09:10:07.063Z,76.20
2019-03-27T09:12:37.908Z,74.90
2019-03-27T09:15:09.248Z,74.60
2019-03-27T09:17:40.046Z,75.00
2019-03-27T09:20:10.954Z,76.00
2019-03-27T09:22:41.760Z,75.70
2019-03-27T09:25:12.498Z,73.70
2019-03-27T09:27:43.224Z,73.00
2019-03-27T09:30:14.746Z,75.00
2019-03-27T09:32:45.538Z,74.40
2019-03-27T09:35:16.342Z,75.00
2019-03-27T09:37:47.038Z,75.20
2019-03-27T09:40:17.711Z,75.50
2019-03-27T09:42:48.460Z,75.10
2019-03-27T09:45:19.360Z,71.60
2019-03-27T09:47:50.098Z,72.30
2019-03-27T09:50:20.862Z,72.90
2019-03-27T09:52:51.706Z,70.20
2019-03-27T09:55:22.456Z,72.60
2019-03-27T09:57:53.292Z,69.40
2019-03-27T10:01:07.966Z,67.80
2019-03-27T10:03:38.827Z,71.90
2019-03-27T10:06:09.662Z,72.80
2019-03-27T10:08:40.512Z,71.30
2019-03-27T10:11:11.361Z,71.80
2019-03-27T10:13:42.196Z,69.60
2019-03-27T10:16:12.938Z,69.70
2019-03-27T10:18:43.743Z,72.30
2019-03-27T10:21:14.530Z,68.90
2019-03-27T10:23:45.235Z,69.90
2019-03-27T10:26:16.106Z,64.60
2019-03-27T10:28:46.896Z,68.10
2019-03-27T10:31:17.731Z,69.80
2019-03-27T10:33:48.553Z,69.50
2019-03-27T10:36:19.213Z,67.60
2019-03-27T10:38:49.886Z,68.70
2019-03-27T10:41:20.699Z,68.30
2019-03-27T10:43:51.559Z,62.00
2019-03-27T10:46:22.386Z,68.10
2019-03-27T10:48:53.280Z,65.80
2019-03-27T10:51:24.234Z,63.30
2019-03-27T10:53:55.097Z,66.40
2019-03-27T10:56:25.987Z,65.70
2019-03-27T10:58:56.934Z,66.40
2019-03-27T11:01:27.693Z,63.90
2019-03-27T11:03:58.506Z,64.50
2019-03-27T11:06:29.304Z,67.80
2019-03-27T11:09:00.186Z,67.10
2019-03-27T11:11:30.916Z,69.40
2019-03-27T11:14:01.647Z,68.60
2019-03-27T11:16:32.457Z,65.90
2019-03-27T11:19:03.213Z,62.80
2019-03-27T11:21:33.928Z,66.60
2019-03-27T11:24:04.690Z,66.00
2019-03-27T11:26:35.541Z,64.80
2019-03-27T11:29:06.280Z,65.10
2019-03-27T11:31:37.132Z,61.50
2019-03-27T11:34:07.819Z,62.30
2019-03-27T11:36:38.701Z,67.70
2019-03-27T11:39:10.353Z,65.40
2019-03-27T11:41:41.182Z,63.90
2019-03-27T11:44:12.816Z,67.80
2019-03-27T11:46:43.799Z,64.20
2019-03-27T11:49:14.652Z,65.20
2019-03-27T11:51:45.488Z,67.30
2019-03-27T11:54:16.366Z,67.40
2019-03-27T11:56:47.238Z,62.80
2019-03-27T11:59:18.087Z,66.60
2019-03-27T12:01:48.872Z,67.20
2019-03-27T12:04:19.663Z,65.90
2019-03-27T12:06:50.490Z,67.30
2019-03-27T12:09:21.331Z,67.10
2019-03-27T12:11:52.056Z,65.90
2019-03-27T12:14:22.868Z,66.90
2019-03-27T12:16:53.688Z,65.40
2019-03-27T12:19:24.534Z,63.20
2019-03-27T12:21:55.309Z,66.20
2019-03-27T12:24:28.511Z,65.50
2019-03-27T12:26:58.583Z,64.10
2019-03-27T12:29:29.333Z,62.20
2019-03-27T12:32:00.159Z,67.10
2019-03-27T12:34:30.916Z,67.80
2019-03-27T12:37:01.665Z,62.80
2019-03-27T12:39:32.373Z,60.40
2019-03-27T12:42:03.255Z,65.20
2019-03-27T12:44:34.000Z,64.50
2019-03-27T12:47:04.943Z,66.40
2019-03-27T12:49:35.755Z,63.40
2019-03-27T12:52:06.803Z,66.50
2019-03-27T12:54:37.585Z,63.00
2019-03-27T12:57:08.413Z,66.00
2019-03-27T12:59:39.137Z,66.70
2019-03-27T13:02:10.027Z,62.90
2019-03-27T13:04:40.887Z,66.40
2019-03-27T13:07:11.738Z,65.50
2019-03-27T13:09:42.598Z,68.40
2019-03-27T13:12:13.494Z,65.00
2019-03-27T13:14:44.296Z,64.00
2019-03-27T13:17:15.091Z,67.80
2019-03-27T13:19:45.822Z,64.30
2019-03-27T13:22:16.597Z,66.50
2019-03-27T13:24:47.396Z,64.80
2019-03-27T13:27:18.230Z,66.80
2019-03-27T13:29:49.131Z,64.60
2019-03-27T13:32:19.875Z,65.40
2019-03-27T13:34:50.612Z,65.10
2019-03-27T13:37:21.436Z,66.60
2019-03-27T13:39:52.276Z,61.60
2019-03-27T13:42:23.117Z,64.30
2019-03-27T13:44:53.874Z,60.50
2019-03-27T13:47:24.754Z,65.60
2019-03-27T13:49:55.521Z,61.00
2019-03-27T13:52:26.430Z,63.10
2019-03-27T13:54:57.317Z,61.50
2019-03-27T13:57:28.095Z,59.70
2019-03-27T13:59:58.984Z,60.60
2019-03-27T14:02:29.830Z,62.90
2019-03-27T14:05:00.722Z,62.60
2019-03-27T14:07:31.438Z,65.00
2019-03-27T14:10:02.282Z,56.80
2019-03-27T14:12:33.022Z,63.40
2019-03-27T14:15:03.850Z,62.50
2019-03-27T14:17:34.594Z,66.10
2019-03-27T14:20:07.029Z,60.50
2019-03-27T14:22:37.772Z,64.60
2019-03-27T14:25:09.710Z,62.60
2019-03-27T14:27:40.530Z,61.90
2019-03-27T14:30:13.153Z,61.20
2019-03-27T14:32:43.845Z,56.50
2019-03-27T14:35:15.270Z,62.00
2019-03-27T14:37:46.074Z,62.50
2019-03-27T14:40:17.056Z,59.90
2019-03-27T14:42:47.966Z,60.20
2019-03-27T14:45:18.749Z,62.90
2019-03-27T14:47:49.492Z,61.30
2019-03-27T14:50:20.231Z,60.60
2019-03-27T14:52:51.093Z,63.70
2019-03-27T14:55:21.788Z,62.50
2019-03-27T14:57:52.647Z,63.20
2019-03-27T15:00:23.892Z,63.00
2019-03-27T15:02:54.770Z,61.70
2019-03-27T15:05:25.462Z,61.80
2019-03-27T15:07:56.345Z,58.90
2019-03-27T15:10:27.217Z,61.60
2019-03-27T15:12:58.170Z,63.00
2019-03-27T15:15:29.061Z,63.40
2019-03-27T15:17:59.785Z,56.50
2019-03-27T15:20:30.622Z,61.30
2019-03-27T15:23:01.479Z,60.00
2019-03-27T15:25:32.314Z,58.00
2019-03-27T15:28:03.103Z,61.60
2019-03-27T15:30:33.917Z,62.80
2019-03-27T15:33:04.878Z,59.60
2019-03-27T15:35:35.742Z,58.20
2019-03-27T15:38:06.550Z,57.80
2019-03-27T15:40:41.569Z,58.20
2019-03-27T15:43:12.393Z,62.30
2019-03-27T15:45:43.214Z,58.30
2019-03-27T15:48:14.151Z,57.80
2019-03-27T15:50:55.616Z,61.00
2019-03-27T15:53:17.473Z,61.00
2019-03-27T15:55:48.416Z,57.80
2019-03-27T15:58:19.197Z,58.20
2019-03-27T16:00:49.917Z,61.70
2019-03-27T16:03:20.877Z,59.70
2019-03-27T16:05:51.875Z,60.90
2019-03-27T16:08:22.719Z,60.70
2019-03-27T16:10:53.561Z,62.10
2019-03-27T16:13:24.275Z,61.10
2019-03-27T16:15:55.019Z,59.00
2019-03-27T16:18:25.848Z,59.00
2019-03-27T16:20:56.766Z,59.70
2019-03-27T16:23:27.565Z,60.70
2019-03-27T16:25:58.393Z,61.10
2019-03-27T16:28:29.203Z,58.00
2019-03-27T16:31:00.067Z,60.60
2019-03-27T16:33:30.780Z,61.30
2019-03-27T16:36:01.548Z,60.00
2019-03-27T16:38:32.369Z,58.20
2019-03-27T16:41:03.114Z,59.80
2019-03-27T16:43:33.865Z,59.70
2019-03-27T16:46:04.627Z,60.40
2019-03-27T16:48:35.513Z,60.70
2019-03-27T16:51:06.218Z,60.50
2019-03-27T16:53:37.070Z,60.30
2019-03-27T16:56:08.399Z,60.00
2019-03-27T16:58:39.093Z,60.30
2019-03-27T17:01:09.871Z,60.20
2019-03-27T17:03:40.719Z,60.20
2019-03-27T17:06:11.502Z,59.60
2019-03-27T17:08:42.316Z,59.90
2019-03-27T17:11:13.234Z,59.30
2019-03-27T17:13:44.051Z,59.30
2019-03-27T17:16:14.911Z,59.90
2019-03-27T17:18:45.701Z,59.40
2019-03-27T17:21:16.591Z,59.90
2019-03-27T17:23:47.420Z,59.20
2019-03-27T17:26:18.337Z,59.30
2019-03-27T17:28:49.219Z,59.90
2019-03-27T17:31:20.119Z,59.60
2019-03-27T17:33:50.862Z,59.50
2019-03-27T17:36:21.745Z,59.00
2019-03-27T17:38:52.559Z,59.40
2019-03-27T17:41:23.374Z,59.80
2019-03-27T17:43:54.133Z,60.00
2019-03-27T17:46:24.906Z,59.70
2019-03-27T17:48:55.708Z,59.60
2019-03-27T17:51:26.406Z,60.00
2019-03-27T17:53:57.286Z,59.70
2019-03-27T17:56:28.172Z,59.90
2019-03-27T17:58:58.966Z,60.10
2019-03-27T18:01:29.826Z,59.90
2019-03-27T18:04:00.752Z,60.00
2019-03-27T18:06:31.585Z,60.00
2019-03-27T18:09:02.394Z,59.90
2019-03-27T18:11:33.062Z,60.00
2019-03-27T18:14:03.931Z,60.00
2019-03-27T18:16:34.826Z,59.90
2019-03-27T18:19:05.662Z,59.90
2019-03-27T18:21:36.408Z,59.80
2019-03-27T18:24:07.190Z,59.80
2019-03-27T18:26:38.097Z,59.70
2019-03-27T18:29:08.860Z,59.80
2019-03-27T18:31:39.780Z,59.70
2019-03-27T18:34:10.575Z,59.90
2019-03-27T18:36:41.464Z,60.30
2019-03-27T18:39:12.162Z,60.40
2019-03-27T18:41:42.989Z,60.40
2019-03-27T18:44:13.711Z,60.50
2019-03-27T18:46:44.588Z,60.50
2019-03-27T18:49:15.770Z,61.00
2019-03-27T18:51:46.595Z,60.30
2019-03-27T18:54:17.550Z,60.30
2019-03-27T18:56:48.315Z,60.40
2019-03-27T18:59:19.132Z,61.00
2019-03-27T19:01:49.855Z,61.40
2019-03-27T19:04:21.569Z,61.10
2019-03-27T19:06:52.287Z,61.00
2019-03-27T19:09:23.154Z,61.00
2019-03-27T19:11:53.954Z,61.50
2019-03-27T19:14:24.812Z,62.80
2019-03-27T19:16:55.718Z,62.10
2019-03-27T19:19:26.571Z,61.70
2019-03-27T19:21:57.351Z,61.60
2019-03-27T19:24:28.157Z,61.60
2019-03-27T19:26:58.929Z,61.70
2019-03-27T19:29:29.742Z,61.70
2019-03-27T19:32:00.616Z,61.20
2019-03-27T19:34:31.462Z,61.60
2019-03-27T19:37:02.227Z,62.10
2019-03-27T19:39:33.060Z,61.60
2019-03-27T19:42:03.929Z,62.10
2019-03-27T19:44:34.660Z,61.70
2019-03-27T19:47:05.620Z,61.90
2019-03-27T19:49:36.290Z,62.00
2019-03-27T19:52:07.123Z,61.80
2019-03-27T19:54:37.845Z,62.20
2019-03-27T19:57:08.603Z,62.20
2019-03-27T19:59:39.563Z,62.20
2019-03-27T20:02:10.393Z,61.70
2019-03-27T20:04:41.281Z,62.20
2019-03-27T20:07:12.022Z,62.50
2019-03-27T20:09:42.823Z,62.20
2019-03-27T20:12:13.637Z,62.50
2019-03-27T20:14:44.444Z,63.40
2019-03-27T20:17:15.321Z,63.90
2019-03-27T20:19:46.183Z,64.00
2019-03-27T20:22:17.034Z,63.80
2019-03-27T20:24:47.863Z,66.80
2019-03-27T20:27:18.631Z,64.70
2019-03-27T20:29:49.447Z,63.70
2019-03-27T20:32:20.211Z,63.50
2019-03-27T20:34:51.048Z,63.80
2019-03-27T20:37:21.752Z,64.30
2019-03-27T20:39:52.499Z,64.40
2019-03-27T20:42:23.258Z,64.10
2019-03-27T20:44:54.082Z,64.10
2019-03-27T20:47:24.923Z,64.10
2019-03-27T20:49:56.163Z,66.20
2019-03-27T20:52:27.060Z,64.10
2019-03-27T20:54:58.246Z,64.20
2019-03-27T20:57:32.670Z,64.60
2019-03-27T21:00:03.647Z,64.30
2019-03-27T21:02:34.491Z,64.60
2019-03-27T21:05:05.601Z,64.60
2019-03-27T21:07:36.404Z,64.60
2019-03-27T21:10:08.325Z,65.20
2019-03-27T21:12:39.163Z,64.80
2019-03-27T21:15:10.083Z,64.70
2019-03-27T21:17:40.821Z,64.40
2019-03-27T21:20:12.028Z,64.90
2019-03-27T21:22:42.728Z,65.30
2019-03-27T21:25:13.913Z,65.00
2019-03-27T21:27:44.824Z,65.00
2019-03-27T21:30:16.257Z,65.40
2019-03-27T21:32:46.961Z,64.90
2019-03-27T21:35:17.732Z,66.90
2019-03-27T21:37:48.654Z,65.50
2019-03-27T21:40:19.595Z,66.30
2019-03-27T21:42:50.527Z,66.60
2019-03-27T21:45:21.222Z,65.90
2019-03-27T21:47:52.116Z,65.40
2019-03-27T21:50:22.816Z,65.40
2019-03-27T21:53:00.655Z,65.60
2019-03-27T21:55:42.198Z,65.70
2019-03-27T21:58:07.841Z,65.20
2019-03-27T22:00:57.674Z,66.00
2019-03-27T22:03:32.659Z,65.60
2019-03-27T22:06:05.474Z,65.10
2019-03-27T22:08:36.297Z,66.30
2019-03-27T22:11:07.136Z,66.10
2019-03-27T22:13:38.064Z,66.70
2019-03-27T22:16:08.792Z,66.60
2019-03-27T22:18:39.635Z,65.70
2019-03-27T22:21:10.498Z,65.30
2019-03-27T22:23:41.267Z,66.00
2019-03-27T22:26:12.026Z,67.80
2019-03-27T22:28:42.712Z,66.90
2019-03-27T22:31:13.415Z,66.50
2019-03-27T22:33:44.237Z,66.60
2019-03-27T22:36:15.030Z,66.30
2019-03-27T22:38:45.802Z,68.30
2019-03-27T22:41:16.696Z,66.10
2019-03-27T22:43:47.550Z,66.30
2019-03-27T22:46:18.306Z,67.70
2019-03-27T22:48:49.076Z,68.00
2019-03-27T22:51:19.954Z,67.40
2019-03-27T22:53:50.701Z,66.20
2019-03-27T22:56:21.582Z,66.20
2019-03-27T22:58:52.374Z,66.20
2019-03-27T23:01:23.250Z,68.80
2019-03-27T23:03:54.066Z,66.10
2019-03-27T23:06:24.893Z,66.30
2019-03-27T23:08:55.745Z,66.40
2019-03-27T23:11:26.472Z,66.40
2019-03-27T23:13:57.316Z,67.50
2019-03-27T23:16:28.198Z,68.50
2019-03-27T23:18:58.928Z,67.00
2019-03-27T23:21:29.690Z,67.10
2019-03-27T23:24:00.370Z,66.90
2019-03-27T23:26:31.240Z,66.60
2019-03-27T23:29:02.036Z,66.30
2019-03-27T23:31:32.860Z,67.60
2019-03-27T23:34:03.587Z,67.80
2019-03-27T23:36:35.050Z,67.00
2019-03-27T23:39:08.701Z,67.60
2019-03-27T23:41:39.553Z,67.80
2019-03-27T23:44:10.291Z,67.50
2019-03-27T23:46:41.183Z,67.00
2019-03-27T23:49:12.049Z,68.50
2019-03-27T23:51:42.780Z,68.20
2019-03-27T23:54:13.715Z,70.70
2019-03-27T23:56:44.382Z,69.00
2019-03-27T23:59:15.127Z,69.10
